Terminal Aerodrome Forecast
Issued by NWS Boise, ID

Home | Current Version | Previous Version | Text Only | Print | Product List | Glossary On
Versions: 1 2 3 4 5 6 7 8 9 10 11 12 13
000
FTUS45 KBOI 251731
TAFBNO
TAF
KBNO 251731Z 2518/2618 24007KT P6SM SKC
     FM252200 31010KT P6SM VCTS BKN080CB
     FM260400 30007KT P6SM VCSH BKN060=

USA.gov is the U.S. government's official web portal to all federal, state and local government web resources and services.